createdAt,value
2018-12-05T00:01:26.347Z,16.00
2018-12-05T00:03:53.810Z,14.78
2018-12-05T00:06:21.257Z,16.70
2018-12-05T00:08:50.522Z,16.50
2018-12-05T00:11:18.328Z,13.72
2018-12-05T00:13:45.792Z,17.98
2018-12-05T00:16:13.213Z,12.25
2018-12-05T00:18:40.704Z,13.40
2018-12-05T00:21:08.162Z,17.90
2018-12-05T00:23:35.577Z,16.10
2018-12-05T00:26:03.064Z,17.45
2018-12-05T00:28:30.496Z,14.07
2018-12-05T00:30:57.911Z,15.93
2018-12-05T00:33:25.436Z,15.35
2018-12-05T00:35:52.862Z,16.67
2018-12-05T00:38:20.360Z,15.93
2018-12-05T00:52:11.601Z,18.63
2018-12-05T00:54:39.109Z,16.60
2018-12-05T00:57:06.531Z,22.13
2018-12-05T00:59:33.937Z,21.30
2018-12-05T01:02:01.392Z,16.70
2018-12-05T01:04:28.812Z,20.37
2018-12-05T01:06:56.275Z,20.77
2018-12-05T01:09:23.708Z,16.35
2018-12-05T01:11:51.178Z,17.60
2018-12-05T01:14:18.641Z,21.07
2018-12-05T01:16:46.092Z,19.75
2018-12-05T01:19:13.518Z,19.30
2018-12-05T01:21:41.020Z,21.57
2018-12-05T01:24:08.433Z,22.25
2018-12-05T01:26:35.943Z,20.40
2018-12-05T01:29:03.369Z,21.27
2018-12-05T01:31:30.780Z,23.67
2018-12-05T01:33:58.217Z,21.27
2018-12-05T01:36:25.651Z,21.62
2018-12-05T01:38:53.119Z,18.20
2018-12-05T01:41:20.672Z,20.57
2018-12-05T01:43:48.118Z,21.77
2018-12-05T01:46:15.561Z,19.60
2018-12-05T01:48:43.044Z,20.97
2018-12-05T01:51:10.486Z,18.50
2018-12-05T01:53:37.970Z,16.48
2018-12-05T01:56:05.510Z,19.73
2018-12-05T01:58:32.935Z,23.52
2018-12-05T02:01:00.742Z,25.70
2018-12-05T02:03:28.184Z,23.80
2018-12-05T02:05:55.606Z,33.53
2018-12-05T02:08:23.120Z,23.83
2018-12-05T02:10:50.533Z,29.45
2018-12-05T02:13:17.962Z,34.40
2018-12-05T02:15:45.493Z,32.45
2018-12-05T02:18:12.939Z,26.80
2018-12-05T02:20:40.345Z,24.07
2018-12-05T02:23:07.841Z,25.70
2018-12-05T02:25:35.258Z,27.75
2018-12-05T02:28:02.692Z,29.00
2018-12-05T02:30:30.211Z,20.75
2018-12-05T02:32:57.638Z,22.47
2018-12-05T02:35:25.073Z,18.55
2018-12-05T02:37:52.597Z,21.15
2018-12-05T02:40:20.057Z,19.32
2018-12-05T02:42:48.198Z,18.35
2018-12-05T02:45:15.665Z,19.05
2018-12-05T02:47:43.112Z,21.85
2018-12-05T02:50:10.697Z,17.35
2018-12-05T02:52:38.161Z,15.40
2018-12-05T02:55:05.702Z,15.00
2018-12-05T02:57:33.165Z,17.30
2018-12-05T03:00:00.597Z,18.70
2018-12-05T03:02:28.075Z,21.30
2018-12-05T03:04:55.509Z,18.07
2018-12-05T03:07:22.993Z,19.12
2018-12-05T03:09:50.454Z,23.07
2018-12-05T03:12:17.894Z,17.17
2018-12-05T03:14:45.371Z,22.70
2018-12-05T03:17:12.826Z,18.40
2018-12-05T03:19:40.271Z,18.90
2018-12-05T03:22:07.715Z,23.10
2018-12-05T03:24:35.130Z,20.50
2018-12-05T03:27:02.639Z,17.00
2018-12-05T03:29:30.111Z,20.77
2018-12-05T03:31:57.537Z,17.80
2018-12-05T03:34:25.026Z,20.62
2018-12-05T03:36:53.416Z,20.15
2018-12-05T03:39:20.974Z,18.17
2018-12-05T03:41:48.407Z,22.22
2018-12-05T03:44:15.841Z,19.50
2018-12-05T03:46:43.333Z,21.93
2018-12-05T03:49:10.780Z,21.10
2018-12-05T03:51:38.203Z,20.27
2018-12-05T03:54:05.708Z,21.93
2018-12-05T03:56:33.254Z,21.33
2018-12-05T03:59:00.720Z,23.32
2018-12-05T04:01:28.169Z,20.95
2018-12-05T04:03:55.573Z,23.27
2018-12-05T04:06:23.091Z,20.92
2018-12-05T04:08:50.557Z,21.00
2018-12-05T04:11:18.009Z,26.97
2018-12-05T04:13:45.463Z,18.67
2018-12-05T04:16:12.922Z,22.50
2018-12-05T04:18:40.411Z,19.60
2018-12-05T04:21:07.836Z,22.67
2018-12-05T04:23:35.265Z,20.75
2018-12-05T04:26:02.681Z,21.53
2018-12-05T04:28:30.116Z,19.30
2018-12-05T04:30:57.547Z,22.35
2018-12-05T04:33:25.123Z,19.90
2018-12-05T04:35:52.580Z,20.77
2018-12-05T04:38:20.018Z,19.00
2018-12-05T04:40:47.469Z,20.30
2018-12-05T04:43:14.882Z,20.32
2018-12-05T04:45:42.406Z,20.68
2018-12-05T04:48:09.962Z,19.48
2018-12-05T04:50:37.418Z,22.27
2018-12-05T04:53:04.992Z,18.75
2018-12-05T04:55:32.829Z,20.43
2018-12-05T04:58:00.241Z,19.50
2018-12-05T05:00:27.791Z,24.75
2018-12-05T05:02:55.325Z,18.53
2018-12-05T05:05:22.773Z,19.30
2018-12-05T05:07:50.265Z,20.15
2018-12-05T05:10:17.789Z,18.55
2018-12-05T05:12:45.220Z,23.67
2018-12-05T05:15:12.724Z,19.20
2018-12-05T05:17:40.254Z,19.02
2018-12-05T05:20:07.837Z,18.02
2018-12-05T05:22:35.260Z,23.67
2018-12-05T05:25:02.772Z,19.27
2018-12-05T05:27:30.229Z,20.50
2018-12-05T05:29:57.660Z,17.23
2018-12-05T05:32:25.087Z,21.50
2018-12-05T05:34:52.658Z,19.30
2018-12-05T05:37:20.121Z,19.75
2018-12-05T05:39:47.674Z,17.52
2018-12-05T05:42:15.252Z,21.25
2018-12-05T05:44:42.687Z,21.30
2018-12-05T05:47:10.110Z,19.02
2018-12-05T05:49:37.532Z,17.35
2018-12-05T05:52:05.078Z,21.35
2018-12-05T05:54:32.633Z,20.55
2018-12-05T05:57:00.074Z,21.45
2018-12-05T05:59:27.540Z,17.65
2018-12-05T06:01:55.104Z,18.12
2018-12-05T06:04:22.537Z,19.15
2018-12-05T06:06:50.005Z,18.65
2018-12-05T06:09:17.457Z,16.95
2018-12-05T06:11:44.906Z,17.77
2018-12-05T06:14:12.392Z,19.20
2018-12-05T06:16:39.838Z,21.10
2018-12-05T06:19:07.246Z,17.17
2018-12-05T06:21:34.770Z,18.98
2018-12-05T06:24:02.309Z,19.82
2018-12-05T06:26:29.969Z,20.37
2018-12-05T06:28:57.385Z,19.43
2018-12-05T06:31:24.886Z,18.73
2018-12-05T06:33:52.338Z,16.93
2018-12-05T06:36:19.781Z,21.35
2018-12-05T06:38:47.212Z,17.92
2018-12-05T06:41:14.735Z,19.20
2018-12-05T06:43:42.163Z,17.02
2018-12-05T06:46:09.621Z,18.45
2018-12-05T06:48:37.344Z,19.27
2018-12-05T06:51:04.839Z,17.92
2018-12-05T06:53:32.328Z,19.40
2018-12-05T06:55:59.866Z,23.45
2018-12-05T06:58:27.432Z,20.32
2018-12-05T07:00:54.888Z,19.00
2018-12-05T07:03:22.318Z,16.25
2018-12-05T07:05:49.737Z,20.48
2018-12-05T07:08:17.257Z,19.95
2018-12-05T07:10:44.731Z,24.90
2018-12-05T07:13:12.153Z,21.70
2018-12-05T07:15:39.590Z,21.35
2018-12-05T07:18:07.100Z,20.35
2018-12-05T07:20:34.535Z,20.00
2018-12-05T07:23:02.008Z,17.90
2018-12-05T07:25:29.439Z,25.90
2018-12-05T07:27:56.932Z,26.65
2018-12-05T07:30:29.425Z,24.98
2018-12-05T07:32:53.808Z,32.23
2018-12-05T07:35:21.238Z,28.32
2018-12-05T07:37:48.686Z,22.33
2018-12-05T07:40:16.132Z,21.12
2018-12-05T07:42:43.587Z,21.45
2018-12-05T07:45:11.225Z,17.65
2018-12-05T07:47:38.651Z,22.83
2018-12-05T07:50:06.182Z,14.93
2018-12-05T07:52:33.598Z,18.25
2018-12-05T07:55:02.363Z,17.67
2018-12-05T07:57:30.152Z,18.00
2018-12-05T07:59:57.648Z,17.62
2018-12-05T08:02:25.106Z,16.53
2018-12-05T08:04:52.572Z,15.83
2018-12-05T08:07:20.029Z,17.50
2018-12-05T08:09:47.488Z,16.67
2018-12-05T08:12:14.915Z,17.50
2018-12-05T08:14:42.392Z,17.73
2018-12-05T08:17:09.856Z,17.75
2018-12-05T08:19:37.313Z,21.45
2018-12-05T08:22:04.764Z,16.45
2018-12-05T08:24:32.220Z,22.52
2018-12-05T08:26:59.685Z,18.60
2018-12-05T08:29:27.142Z,20.15
2018-12-05T08:31:54.554Z,15.65
2018-12-05T08:34:22.041Z,15.43
2018-12-05T08:36:49.508Z,13.25
2018-12-05T08:39:16.947Z,19.27
2018-12-05T08:41:44.429Z,16.90
2018-12-05T08:44:11.905Z,18.15
2018-12-05T08:46:39.350Z,16.23
2018-12-05T08:49:06.821Z,18.77
2018-12-05T08:51:34.328Z,21.90
2018-12-05T08:54:01.800Z,20.55
2018-12-05T08:56:29.216Z,19.77
2018-12-05T08:58:56.661Z,24.18
2018-12-05T09:01:24.068Z,16.05
2018-12-05T09:03:51.494Z,19.63
2018-12-05T09:06:18.974Z,15.75
2018-12-05T09:08:46.434Z,19.52
2018-12-05T09:11:13.880Z,17.62
2018-12-05T09:13:41.356Z,16.50
2018-12-05T09:16:08.789Z,18.53
2018-12-05T09:18:36.226Z,17.55
2018-12-05T09:21:03.708Z,17.75
2018-12-05T09:23:31.135Z,18.23
2018-12-05T09:25:58.652Z,18.55
2018-12-05T09:28:26.087Z,21.20
2018-12-05T09:30:53.504Z,20.23
2018-12-05T09:33:21.021Z,16.77
2018-12-05T09:35:48.557Z,16.73
2018-12-05T09:38:15.993Z,20.35
2018-12-05T09:40:43.480Z,19.10
2018-12-05T09:43:10.934Z,21.10
2018-12-05T09:45:38.503Z,18.15
2018-12-05T09:48:06.029Z,20.27
2018-12-05T09:50:33.513Z,20.68
2018-12-05T09:53:00.923Z,18.20
2018-12-05T09:55:28.490Z,18.80
2018-12-05T09:57:55.983Z,17.48
2018-12-05T10:00:23.452Z,22.07
2018-12-05T10:02:50.909Z,15.48
2018-12-05T10:05:18.333Z,20.60
2018-12-05T10:07:45.769Z,15.73
2018-12-05T10:10:13.208Z,21.35
2018-12-05T10:12:40.626Z,24.82
2018-12-05T10:15:08.183Z,22.63
2018-12-05T10:17:35.841Z,25.45
2018-12-05T10:20:03.524Z,21.87
2018-12-05T10:22:30.961Z,22.73
2018-12-05T10:24:58.434Z,22.60
2018-12-05T10:27:25.946Z,22.73
2018-12-05T10:29:53.381Z,23.10
2018-12-05T10:32:20.906Z,19.85
2018-12-05T10:34:48.368Z,27.48
2018-12-05T10:37:15.815Z,22.67
2018-12-05T10:39:43.273Z,26.35
2018-12-05T10:42:10.718Z,24.52
2018-12-05T10:44:38.273Z,25.27
2018-12-05T10:47:05.745Z,22.20
2018-12-05T10:49:33.180Z,23.05
2018-12-05T10:52:00.652Z,21.85
2018-12-05T10:54:28.234Z,23.02
2018-12-05T10:56:55.694Z,26.30
2018-12-05T10:59:23.259Z,23.20
2018-12-05T11:01:56.281Z,28.60
2018-12-05T11:11:00.038Z,21.30
2018-12-05T11:13:33.242Z,25.53
2018-12-05T11:16:03.433Z,23.52
2018-12-05T11:21:49.733Z,16.42
2018-12-05T11:24:18.057Z,17.10
2018-12-05T11:26:45.552Z,18.70
2018-12-05T11:29:13.082Z,14.00
2018-12-05T11:31:40.513Z,17.10
2018-12-05T11:34:08.011Z,14.63
2018-12-05T11:36:35.564Z,20.10
2018-12-05T11:39:03.834Z,14.93
2018-12-05T11:41:32.720Z,11.12
2018-12-05T11:44:00.335Z,20.43
2018-12-05T11:46:27.750Z,13.50
2018-12-05T11:48:55.212Z,17.52
2018-12-05T11:51:22.657Z,13.73
2018-12-05T11:53:50.083Z,17.00
2018-12-05T11:56:17.570Z,12.68
2018-12-05T11:58:45.030Z,13.10
2018-12-05T12:01:12.482Z,15.10
2018-12-05T12:03:39.917Z,16.45
2018-12-05T12:06:07.574Z,11.10
2018-12-05T12:08:35.017Z,12.28
2018-12-05T12:11:04.381Z,15.43
2018-12-05T12:13:31.839Z,16.35
2018-12-05T12:15:59.274Z,14.68
2018-12-05T12:18:26.732Z,15.50
2018-12-05T12:20:54.194Z,12.82
2018-12-05T12:23:21.646Z,12.10
2018-12-05T12:25:49.116Z,12.40
2018-12-05T12:28:16.572Z,13.72
2018-12-05T12:30:44.006Z,15.72
2018-12-05T12:33:11.451Z,18.42
2018-12-05T12:35:38.868Z,15.07
2018-12-05T12:38:06.295Z,13.70
2018-12-05T12:40:33.706Z,11.70
2018-12-05T12:43:01.148Z,11.80
2018-12-05T12:45:28.621Z,14.55
2018-12-05T12:47:56.064Z,13.58
2018-12-05T12:50:23.584Z,12.95
2018-12-05T12:52:50.997Z,14.73
2018-12-05T12:55:18.489Z,12.70
2018-12-05T12:57:45.952Z,11.22
2018-12-05T13:00:13.411Z,13.05
2018-12-05T13:02:40.823Z,15.53
2018-12-05T13:05:08.235Z,14.58
2018-12-05T13:07:35.734Z,15.50
2018-12-05T13:10:03.764Z,13.00
2018-12-05T13:12:33.146Z,15.30
2018-12-05T13:15:00.598Z,17.00
2018-12-05T13:17:28.052Z,13.20
2018-12-05T13:19:55.510Z,16.75
2018-12-05T13:22:23.067Z,15.25
2018-12-05T13:24:50.501Z,13.25
2018-12-05T13:27:17.983Z,13.93
2018-12-05T13:29:45.419Z,13.72
2018-12-05T13:32:12.928Z,17.32
2018-12-05T13:34:40.371Z,15.18
2018-12-05T13:37:07.834Z,12.93
2018-12-05T13:39:35.270Z,15.28
2018-12-05T13:42:02.753Z,12.50
2018-12-05T13:44:30.192Z,13.70
2018-12-05T13:46:57.665Z,14.83
2018-12-05T13:49:25.114Z,15.10
2018-12-05T13:51:52.608Z,15.78
2018-12-05T13:54:20.129Z,13.13
2018-12-05T13:56:47.587Z,14.50
2018-12-05T13:59:15.016Z,14.53
2018-12-05T14:01:42.501Z,16.10
2018-12-05T14:04:10.059Z,14.97
2018-12-05T14:06:37.536Z,15.90
2018-12-05T14:09:05.980Z,18.35
2018-12-05T14:11:33.456Z,15.87
2018-12-05T14:14:01.024Z,17.10
2018-12-05T14:16:28.572Z,16.20
2018-12-05T14:18:55.993Z,15.90
2018-12-05T14:21:23.494Z,15.98
2018-12-05T14:23:50.930Z,14.15
2018-12-05T14:26:18.411Z,16.15
2018-12-05T14:28:45.828Z,13.00
2018-12-05T14:31:13.322Z,14.15
2018-12-05T14:33:40.744Z,15.68
2018-12-05T14:36:08.312Z,14.93
2018-12-05T14:38:35.800Z,12.43
2018-12-05T14:41:03.346Z,17.17
2018-12-05T14:43:30.891Z,14.50
2018-12-05T14:45:58.358Z,18.57
2018-12-05T14:48:25.826Z,29.42
2018-12-05T14:50:53.250Z,16.50
2018-12-05T14:53:20.758Z,17.02
2018-12-05T14:55:48.296Z,21.33
2018-12-05T14:58:15.710Z,55.15
2018-12-05T15:00:43.220Z,34.70
2018-12-05T15:03:10.642Z,23.30
2018-12-05T15:05:38.060Z,22.17
2018-12-05T15:08:05.599Z,20.05
2018-12-05T15:10:33.473Z,15.55
2018-12-05T15:13:00.998Z,14.70
2018-12-05T15:15:29.170Z,15.15
2018-12-05T15:17:56.644Z,15.63
2018-12-05T15:20:24.105Z,14.70
2018-12-05T15:22:51.636Z,14.38
2018-12-05T15:25:19.108Z,14.47
2018-12-05T15:27:46.561Z,49.15
2018-12-05T15:30:14.098Z,53.48
2018-12-05T15:32:41.520Z,80.62
2018-12-05T15:35:09.005Z,60.55
2018-12-05T15:37:36.441Z,16.85
2018-12-05T15:40:04.554Z,16.60
2018-12-05T15:42:31.981Z,17.77
2018-12-05T15:44:59.427Z,16.93
2018-12-05T15:47:26.940Z,19.02
2018-12-05T15:49:54.375Z,29.87
2018-12-05T15:52:21.846Z,25.20
2018-12-05T15:54:49.341Z,32.45
2018-12-05T15:57:16.780Z,15.80
2018-12-05T15:59:44.276Z,22.82
2018-12-05T16:02:11.784Z,20.00
2018-12-05T16:04:39.230Z,32.40
2018-12-05T16:07:06.667Z,31.20
2018-12-05T16:09:34.091Z,15.32
2018-12-05T16:12:01.595Z,21.15
2018-12-05T16:14:29.008Z,15.88
2018-12-05T16:16:56.443Z,15.58
2018-12-05T16:19:23.879Z,17.87
2018-12-05T16:21:51.336Z,15.00
2018-12-05T16:24:18.769Z,14.55
2018-12-05T16:26:46.247Z,12.98
2018-12-05T16:29:13.681Z,11.63
2018-12-05T16:31:41.267Z,11.88
2018-12-05T16:34:08.728Z,15.98
2018-12-05T16:36:36.166Z,12.28
2018-12-05T16:39:06.376Z,13.30
2018-12-05T16:41:33.816Z,13.88
2018-12-05T16:44:01.243Z,12.60
2018-12-05T16:46:28.758Z,14.73
2018-12-05T16:48:56.240Z,14.73
2018-12-05T16:51:23.688Z,9.28
2018-12-05T16:53:51.108Z,13.50
2018-12-05T16:56:18.603Z,14.90
2018-12-05T16:58:46.074Z,12.47
2018-12-05T17:01:13.503Z,11.47
2018-12-05T17:03:40.959Z,11.10
2018-12-05T17:06:08.401Z,13.05
2018-12-05T17:08:35.878Z,13.32
2018-12-05T17:11:03.334Z,13.13
2018-12-05T17:13:30.800Z,12.30
2018-12-05T17:15:58.257Z,13.03
2018-12-05T17:18:25.753Z,17.00
2018-12-05T17:20:53.272Z,14.90
2018-12-05T17:23:20.736Z,90.20
2018-12-05T17:25:48.150Z,32.88
2018-12-05T17:28:15.633Z,15.55
2018-12-05T17:30:43.100Z,15.30
2018-12-05T17:33:10.568Z,17.48
2018-12-05T17:35:38.005Z,16.52
2018-12-05T17:38:05.481Z,20.40
2018-12-05T17:40:32.905Z,20.37
2018-12-05T17:43:00.394Z,34.10
2018-12-05T17:45:28.440Z,27.95
2018-12-05T17:47:57.325Z,23.32
2018-12-05T17:50:24.797Z,18.50
2018-12-05T17:52:52.237Z,16.47
2018-12-05T17:55:19.647Z,12.73
2018-12-05T17:57:47.102Z,16.70
2018-12-05T18:00:14.598Z,15.70
2018-12-05T18:02:42.073Z,19.80
2018-12-05T18:05:09.539Z,21.55
2018-12-05T18:07:36.989Z,16.67
2018-12-05T18:10:05.285Z,15.45
2018-12-05T18:12:32.706Z,19.40
2018-12-05T18:15:00.153Z,21.33
2018-12-05T18:17:27.660Z,23.80
2018-12-05T18:19:55.091Z,21.05
2018-12-05T18:22:22.657Z,30.27
2018-12-05T18:24:50.115Z,19.92
2018-12-05T18:27:17.535Z,12.23
2018-12-05T18:29:45.143Z,15.43
2018-12-05T18:32:12.586Z,18.40
2018-12-05T18:34:40.153Z,16.60
2018-12-05T18:37:07.641Z,15.75
2018-12-05T18:39:35.083Z,22.63
2018-12-05T18:42:02.640Z,17.48
2018-12-05T18:44:30.064Z,31.30
2018-12-05T18:46:57.552Z,25.43
2018-12-05T18:49:24.993Z,16.02
2018-12-05T18:51:52.469Z,13.53
2018-12-05T18:54:19.904Z,13.15
2018-12-05T18:56:47.315Z,28.45
2018-12-05T18:59:14.848Z,17.00
2018-12-05T19:01:42.275Z,25.60
2018-12-05T19:04:09.705Z,17.70
2018-12-05T19:06:37.197Z,15.70
2018-12-05T19:09:07.032Z,17.42
2018-12-05T19:11:34.675Z,16.50
2018-12-05T19:14:07.897Z,19.70
2018-12-05T19:16:35.430Z,15.47
2018-12-05T19:19:02.841Z,16.57
2018-12-05T19:21:30.340Z,15.23
2018-12-05T19:23:57.804Z,17.60
2018-12-05T19:26:25.271Z,24.65
2018-12-05T19:28:52.709Z,20.52
2018-12-05T19:31:20.189Z,16.93
2018-12-05T19:33:47.635Z,15.38
2018-12-05T19:36:15.191Z,18.60
2018-12-05T19:38:42.616Z,17.13
2018-12-05T19:41:10.077Z,20.57
2018-12-05T19:43:37.537Z,16.65
2018-12-05T19:46:05.029Z,13.83
2018-12-05T19:48:32.442Z,16.05
2018-12-05T19:50:59.872Z,14.65
2018-12-05T19:53:27.311Z,14.43
2018-12-05T19:55:54.830Z,13.15
2018-12-05T19:58:22.398Z,16.75
2018-12-05T20:00:49.877Z,30.02
2018-12-05T20:03:17.312Z,17.27
2018-12-05T20:05:44.763Z,25.60
2018-12-05T20:08:12.193Z,20.27
2018-12-05T20:10:39.631Z,22.30
2018-12-05T20:13:07.039Z,24.47
2018-12-05T20:15:34.498Z,19.77
2018-12-05T20:18:01.955Z,39.58
2018-12-05T20:20:29.498Z,44.55
2018-12-05T20:22:56.944Z,25.05
2018-12-05T20:25:24.436Z,24.00
2018-12-05T20:27:51.895Z,27.42
2018-12-05T20:30:19.323Z,26.45
2018-12-05T20:32:46.758Z,28.40
2018-12-05T20:35:14.258Z,27.00
2018-12-05T20:37:41.715Z,41.05
2018-12-05T20:40:09.199Z,45.12
2018-12-05T20:42:36.613Z,23.12
2018-12-05T20:45:05.250Z,23.70
2018-12-05T20:47:32.773Z,16.27
2018-12-05T20:50:00.244Z,16.77
2018-12-05T20:52:27.667Z,15.95
2018-12-05T20:54:55.141Z,15.23
2018-12-05T20:57:22.584Z,15.85
2018-12-05T20:59:50.060Z,13.65
2018-12-05T21:02:17.478Z,11.50
2018-12-05T21:04:44.956Z,10.70
2018-12-05T21:07:12.422Z,12.70
2018-12-05T21:09:39.871Z,8.60
2018-12-05T21:12:07.285Z,12.87
2018-12-05T21:14:34.715Z,7.80
2018-12-05T21:17:02.122Z,8.80
2018-12-05T21:19:29.593Z,8.90
2018-12-05T21:21:57.068Z,9.10
2018-12-05T21:24:24.537Z,8.73
2018-12-05T21:26:51.966Z,9.65
2018-12-05T21:29:19.425Z,8.30
2018-12-05T21:31:46.865Z,10.18
2018-12-05T21:34:14.352Z,10.75
2018-12-05T21:36:41.802Z,7.83
2018-12-05T21:39:09.327Z,9.43
2018-12-05T21:41:36.829Z,8.75
2018-12-05T21:44:04.261Z,9.57
2018-12-05T21:46:31.739Z,8.98
2018-12-05T21:48:59.161Z,10.10
2018-12-05T21:51:26.565Z,9.90
2018-12-05T21:53:53.991Z,9.80
2018-12-05T21:56:21.456Z,9.95
2018-12-05T21:58:49.019Z,11.75
2018-12-05T22:01:16.463Z,11.80
2018-12-05T22:03:43.921Z,12.55
2018-12-05T22:06:11.410Z,8.85
2018-12-05T22:08:38.835Z,9.45
2018-12-05T22:11:06.264Z,11.25
2018-12-05T22:13:33.776Z,9.38
2018-12-05T22:16:01.226Z,9.83
2018-12-05T22:18:28.676Z,12.33
2018-12-05T22:20:56.091Z,11.15
2018-12-05T22:23:23.554Z,9.48
2018-12-05T22:25:50.964Z,11.65
2018-12-05T22:28:18.602Z,9.65
2018-12-05T22:30:46.025Z,9.65
2018-12-05T22:33:13.511Z,12.63
2018-12-05T22:35:40.943Z,13.15
2018-12-05T22:38:08.367Z,10.72
2018-12-05T22:40:35.897Z,10.13
2018-12-05T22:43:03.332Z,12.18
2018-12-05T22:45:30.794Z,9.83
2018-12-05T22:47:58.277Z,11.10
2018-12-05T22:50:25.696Z,11.63
2018-12-05T22:52:53.170Z,10.05
2018-12-05T22:55:20.682Z,11.80
2018-12-05T22:57:48.233Z,11.30
2018-12-05T23:00:18.357Z,9.90
2018-12-05T23:02:45.886Z,11.60
2018-12-05T23:05:13.331Z,12.37
2018-12-05T23:07:40.749Z,9.28
2018-12-05T23:10:08.201Z,10.00
2018-12-05T23:12:35.697Z,10.90
2018-12-05T23:15:03.376Z,13.18
2018-12-05T23:17:30.827Z,8.63
2018-12-05T23:19:58.242Z,9.88
2018-12-05T23:22:25.680Z,11.80
2018-12-05T23:24:53.096Z,9.83
2018-12-05T23:27:20.530Z,9.73
2018-12-05T23:29:47.997Z,9.70
2018-12-05T23:32:15.446Z,10.15
2018-12-05T23:34:42.898Z,8.83
2018-12-05T23:37:10.311Z,15.95
2018-12-05T23:39:37.828Z,10.65
2018-12-05T23:42:05.242Z,10.48
2018-12-05T23:44:32.661Z,9.73
2018-12-05T23:47:00.112Z,11.45
2018-12-05T23:49:27.537Z,11.85
2018-12-05T23:51:54.976Z,8.78
2018-12-05T23:54:22.389Z,13.48
2018-12-05T23:56:49.834Z,9.08
2018-12-05T23:59:17.263Z,15.95
